Time;durP1;ratioP1;P1;durP2;ratioP2;P2;SDS_P1;SDS_P2;PMS_P1;PMS_P2;Temp;Humidity;BMP_temperature;BMP_pressure;BME280_temperature;BME280_humidity;BME280_pressure;Samples;Min_cycle;Max_cycle;Signal;HPM_P1;HPM_P2
2024/03/21 00:01:46;;;;;;;;;;;;;;;-144.99;100.00;52407.31;5039061;28;19994;-67
2024/03/21 00:04:11;;;;;;;;;;;;;;;-144.99;100.00;52415.47;5032959;28;20526;-67
2024/03/21 00:06:38;;;;;;;;;;;;;;;-144.99;100.00;52413.44;5033077;28;19985;-67
2024/03/21 00:09:03;;;;;;;;;;;;;;;-144.99;100.00;52386.94;5032680;28;20623;-68
2024/03/21 00:11:30;;;;;;;;;;;;;;;-144.99;100.00;52437.91;5032984;28;20065;-68
2024/03/21 00:13:55;;;;;;;;;;;;;;;-144.99;100.00;52431.78;5034398;28;19990;-64
2024/03/21 00:16:23;;;;;;;;;;;;;;;-144.99;100.00;52409.38;5033318;28;19989;-65
2024/03/21 00:18:49;;;;;;;;;;;;;;;-144.99;100.00;52366.56;5032505;28;20476;-68
2024/03/21 00:21:15;;;;;;;;;;;;;;;-144.99;100.00;52378.78;5031524;28;19998;-65
2024/03/21 00:23:41;;;;;;;;;;;;;;;-144.99;100.00;52395.09;5031612;28;19950;-64
2024/03/21 00:26:07;;;;;;;;;;;;;;;-144.99;100.00;52415.47;4686631;28;10000271;-65
2024/03/21 00:28:33;;;;;;;;;;;;;;;-144.99;100.00;52391.03;5031284;28;20030;-66
2024/03/21 00:30:59;;;;;;;;;;;;;;;-144.99;100.00;52382.88;5033892;28;19936;-64
2024/03/21 00:33:27;;;;;;;;;;;;;;;-144.99;100.00;52435.88;5028400;28;20013;-65
2024/03/21 00:35:53;;;;;;;;;;;;;;;-144.99;100.00;52419.56;5032370;28;19925;-64
2024/03/21 00:38:19;;;;;;;;;;;;;;;-144.99;100.00;52366.56;5033759;28;20027;-72
2024/03/21 00:40:45;;;;;;;;;;;;;;;-144.99;100.00;52435.88;5035891;28;19951;-74
2024/03/21 00:43:11;;;;;;;;;;;;;;;-144.99;100.00;52415.47;5035566;28;19994;-73
2024/03/21 00:45:37;;;;;;;;;;;;;;;-144.99;100.00;52386.94;5036032;28;20366;-73
2024/03/21 00:48:03;;;;;;;;;;;;;;;-144.99;100.00;52439.94;5033575;28;19943;-74
2024/03/21 00:50:31;;;;;;;;;;;;;;;-144.99;100.00;52407.31;5037367;28;19962;-73
2024/03/21 00:52:57;;;;;;;;;;;;;;;-144.99;100.00;52407.31;5037360;28;20200;-73
2024/03/21 00:55:23;;;;;;;;;;;;;;;-144.99;100.00;52425.66;5034682;28;20075;-73
2024/03/21 00:57:49;;;;;;;;;;;;;;;-144.99;100.00;52423.63;5035398;28;20043;-75
2024/03/21 01:00:16;;;;;;;;;;;;;;;-144.99;100.00;52439.94;5031419;28;20063;-67
2024/03/21 01:02:41;;;;;;;;;;;;;;;-144.99;100.00;52425.66;5031738;28;19929;-70
2024/03/21 01:05:12;;;;;;;;;;;;;;;-144.99;100.00;52362.50;5034707;28;19943;-68
2024/03/21 01:07:38;;;;;;;;;;;;;;;-144.99;100.00;52417.53;5032219;28;19956;-68
2024/03/21 01:10:05;;;;;;;;;;;;;;;-144.99;100.00;52431.78;5038047;28;19962;-69
2024/03/21 01:12:31;;;;;;;;;;;;;;;-144.99;100.00;52429.75;5036862;28;20054;-68
2024/03/21 01:14:57;;;;;;;;;;;;;;;-144.99;100.00;52391.03;5036154;28;19939;-66
2024/03/21 01:17:23;;;;;;;;;;;;;;;-144.99;100.00;52366.56;5035758;28;20469;-65
2024/03/21 01:19:49;;;;;;;;;;;;;;;-144.99;100.00;52395.09;5038493;28;20213;-65
2024/03/21 01:22:15;;;;;;;;;;;;;;;-144.99;100.00;52437.91;5031416;28;20020;-64
2024/03/21 01:24:46;;;;;;;;;;;;;;;-144.99;100.00;52399.19;5031655;28;19972;-63
2024/03/21 01:27:12;;;;;;;;;;;;;;;-144.99;100.00;52415.47;5032959;28;19932;-61
2024/03/21 01:29:39;;;;;;;;;;;;;;;-144.99;100.00;52415.47;5031633;28;19964;-61
2024/03/21 01:32:04;;;;;;;;;;;;;;;-144.99;100.00;52382.88;5031851;28;20340;-64
2024/03/21 01:34:31;;;;;;;;;;;;;;;-144.99;100.00;52397.13;5032070;28;20024;-65
2024/03/21 01:36:57;;;;;;;;;;;;;;;-144.99;100.00;52415.47;5032307;28;19943;-63
2024/03/21 01:39:24;;;;;;;;;;;;;;;-144.99;100.00;52423.63;5031404;28;20003;-64
2024/03/21 01:41:51;;;;;;;;;;;;;;;-144.99;100.00;52403.25;5031332;28;19959;-64
2024/03/21 01:44:19;;;;;;;;;;;;;;;-144.99;100.00;52464.41;5031326;28;20368;-65
2024/03/21 01:46:46;;;;;;;;;;;;;;;-144.99;100.00;52435.88;5037386;28;19929;-64
2024/03/21 01:49:13;;;;;;;;;;;;;;;-144.99;100.00;52378.78;5034107;28;19925;-69
2024/03/21 01:51:39;;;;;;;;;;;;;;;-144.99;100.00;52435.88;5030628;28;20046;-71
2024/03/21 01:54:07;;;;;;;;;;;;;;;-144.99;100.00;52395.09;5036201;28;19935;-72
2024/03/21 01:56:33;;;;;;;;;;;;;;;-144.99;100.00;52419.56;5031783;28;20361;-73
2024/03/21 01:59:01;;;;;;;;;;;;;;;-144.99;100.00;52409.38;5034731;28;19941;-75
2024/03/21 02:01:27;;;;;;;;;;;;;;;-144.99;100.00;52386.94;5032479;28;20093;-72
2024/03/21 02:03:55;;;;;;;;;;;;;;;-144.99;100.00;52419.56;5043314;28;19943;-75
2024/03/21 02:06:21;;;;;;;;;;;;;;;-144.99;100.00;52415.47;5045742;28;19929;-76
2024/03/21 02:08:48;;;;;;;;;;;;;;;-144.99;100.00;52439.94;5033207;28;19961;-72
2024/03/21 02:11:13;;;;;;;;;;;;;;;-144.99;100.00;52419.56;5033209;28;20013;-71
2024/03/21 02:13:40;;;;;;;;;;;;;;;-144.99;100.00;52415.47;5034357;28;20350;-70
2024/03/21 02:16:07;;;;;;;;;;;;;;;-144.99;100.00;52403.25;5032394;28;19986;-72
2024/03/21 02:18:34;;;;;;;;;;;;;;;-144.99;100.00;52411.41;5033255;28;19973;-71
2024/03/21 02:20:59;;;;;;;;;;;;;;;-144.99;100.00;52423.63;5032434;28;19960;-71
2024/03/21 02:23:26;;;;;;;;;;;;;;;-144.99;100.00;52386.94;5033778;28;20042;-71
2024/03/21 02:25:55;;;;;;;;;;;;;;;-144.99;100.00;52444.03;5032228;28;19944;-70
2024/03/21 02:28:20;;;;;;;;;;;;;;;-144.99;100.00;52397.13;5042795;28;19939;-70
2024/03/21 02:30:48;;;;;;;;;;;;;;;-144.99;100.00;52462.34;5039131;28;19987;-69
2024/03/21 02:33:13;;;;;;;;;;;;;;;-144.99;100.00;52419.56;5030918;28;20008;-68
2024/03/21 02:35:40;;;;;;;;;;;;;;;-144.99;100.00;52419.56;5030914;28;20032;-68
2024/03/21 02:38:05;;;;;;;;;;;;;;;-144.99;100.00;52444.03;5031448;28;20012;-69
2024/03/21 02:40:33;;;;;;;;;;;;;;;-144.99;100.00;52374.72;5031065;28;20016;-70
2024/03/21 02:42:59;;;;;;;;;;;;;;;-144.99;100.00;52429.75;5031939;28;19933;-69
2024/03/21 02:45:25;;;;;;;;;;;;;;;-144.99;100.00;52395.09;5030685;28;20015;-69
2024/03/21 02:47:51;;;;;;;;;;;;;;;-144.99;100.00;52395.09;5032284;28;19991;-70
2024/03/21 02:50:17;;;;;;;;;;;;;;;-144.99;100.00;52407.31;5030601;28;19925;-68
2024/03/21 02:52:43;;;;;;;;;;;;;;;-144.99;100.00;52427.72;5029983;28;19956;-66
2024/03/21 02:55:09;;;;;;;;;;;;;;;-144.99;100.00;52433.81;5030074;28;19953;-65
2024/03/21 02:57:36;;;;;;;;;;;;;;;-144.99;100.00;52366.56;5030883;28;20394;-64
2024/03/21 03:00:03;;;;;;;;;;;;;;;-144.99;100.00;52466.44;5029995;28;19929;-64
2024/03/21 03:02:28;;;;;;;;;;;;;;;-144.99;100.00;52407.31;5029832;28;19928;-67
2024/03/21 03:04:55;;;;;;;;;;;;;;;-144.99;100.00;52407.31;5032217;28;19929;-65
2024/03/21 03:07:20;;;;;;;;;;;;;;;-144.99;100.00;52415.47;5032850;28;19999;-67
2024/03/21 03:09:47;;;;;;;;;;;;;;;-144.99;100.00;52423.63;5030776;28;20374;-63
2024/03/21 03:12:12;;;;;;;;;;;;;;;-144.99;100.00;52444.03;5029471;28;19955;-63
2024/03/21 03:14:41;;;;;;;;;;;;;;;-144.99;100.00;52370.63;5030366;28;20402;-64
2024/03/21 03:17:06;;;;;;;;;;;;;;;-144.99;100.00;52411.41;5029780;28;19960;-65
2024/03/21 03:19:33;;;;;;;;;;;;;;;-144.99;100.00;52399.19;5030888;28;20028;-66
2024/03/21 03:21:58;;;;;;;;;;;;;;;-144.99;100.00;52417.53;5031437;28;19929;-67
2024/03/21 03:24:25;;;;;;;;;;;;;;;-144.99;100.00;52448.09;5032730;28;20362;-66
2024/03/21 03:26:50;;;;;;;;;;;;;;;-144.99;100.00;52427.72;5030995;28;20380;-66
2024/03/21 03:29:16;;;;;;;;;;;;;;;-144.99;100.00;52427.72;5029883;28;19944;-66
2024/03/21 03:31:43;;;;;;;;;;;;;;;-144.99;100.00;52378.78;5028523;28;20030;-65
2024/03/21 03:36:54;;;;;;;;;;;;;;;-144.99;100.00;52407.31;5034459;28;20048;-64
2024/03/21 03:39:20;;;;;;;;;;;;;;;-144.99;100.00;52444.03;5029121;28;20048;-64
2024/03/21 03:41:47;;;;;;;;;;;;;;;-144.99;100.00;52435.88;5029119;28;20200;-65
2024/03/21 03:44:15;;;;;;;;;;;;;;;-144.99;100.00;52448.09;5029511;28;19925;-64
2024/03/21 03:46:41;;;;;;;;;;;;;;;-144.99;100.00;52411.41;5032796;28;20157;-64
2024/03/21 03:49:09;;;;;;;;;;;;;;;-144.99;100.00;52435.88;5029537;28;20356;-64
2024/03/21 03:51:35;;;;;;;;;;;;;;;-144.99;100.00;52415.47;5032835;28;19982;-66
2024/03/21 03:54:01;;;;;;;;;;;;;;;-144.99;100.00;52435.88;5034270;28;19939;-65
2024/03/21 03:56:27;;;;;;;;;;;;;;;-144.99;100.00;52407.31;5032785;28;19964;-65
2024/03/21 03:58:54;;;;;;;;;;;;;;;-144.99;100.00;52431.78;5029229;28;20016;-65
2024/03/21 04:01:19;;;;;;;;;;;;;;;-144.99;100.00;52393.06;5032295;28;19972;-64
2024/03/21 04:03:46;;;;;;;;;;;;;;;-144.99;100.00;52423.63;5028950;28;20050;-64
2024/03/21 04:06:14;;;;;;;;;;;;;;;-144.99;100.00;52411.41;5029223;28;20109;-64
2024/03/21 04:08:40;;;;;;;;;;;;;;;-144.99;100.00;52431.78;5029052;28;20421;-67
2024/03/21 04:11:12;;;;;;;;;;;;;;;-144.99;100.00;52419.56;5028991;28;19957;-68
2024/03/21 04:13:38;;;;;;;;;;;;;;;-144.99;100.00;52407.31;5029025;28;20006;-67
2024/03/21 04:16:04;;;;;;;;;;;;;;;-144.99;100.00;52407.31;5029893;28;19963;-64
2024/03/21 04:18:31;;;;;;;;;;;;;;;-144.99;100.00;52452.16;5029871;28;20007;-63
2024/03/21 04:20:56;;;;;;;;;;;;;;;-144.99;100.00;52407.31;5032581;28;19972;-64
2024/03/21 04:23:24;;;;;;;;;;;;;;;-144.99;100.00;52421.59;5029674;28;19932;-63
2024/03/21 04:25:50;;;;;;;;;;;;;;;-144.99;100.00;52415.47;5030938;28;20138;-63
2024/03/21 04:28:16;;;;;;;;;;;;;;;-144.99;100.00;52419.56;5028466;28;19979;-63
2024/03/21 04:30:42;;;;;;;;;;;;;;;-144.99;100.00;52417.53;5028827;28;19983;-64
2024/03/21 04:33:09;;;;;;;;;;;;;;;-144.99;100.00;52444.03;5028734;28;19929;-64
2024/03/21 04:35:34;;;;;;;;;;;;;;;-144.99;100.00;52433.81;5032169;28;20391;-64
2024/03/21 04:38:01;;;;;;;;;;;;;;;-144.99;100.00;52439.94;5029117;28;19987;-65
2024/03/21 04:40:29;;;;;;;;;;;;;;;-144.99;100.00;52439.94;5028569;28;19925;-62
2024/03/21 04:42:57;;;;;;;;;;;;;;;-144.99;100.00;52370.63;5027500;28;20498;-64
2024/03/21 04:45:23;;;;;;;;;;;;;;;-144.99;100.00;52431.78;5031213;28;19935;-63
2024/03/21 04:47:50;;;;;;;;;;;;;;;-144.99;100.00;52407.31;5027848;28;19973;-63
2024/03/21 04:50:15;;;;;;;;;;;;;;;-144.99;100.00;52413.44;5028463;28;20402;-63
2024/03/21 04:52:42;;;;;;;;;;;;;;;-144.99;100.00;52415.47;5028291;28;19957;-63
2024/03/21 04:55:07;;;;;;;;;;;;;;;-144.99;100.00;52444.03;5034448;28;19976;-63
2024/03/21 04:57:35;;;;;;;;;;;;;;;-144.99;100.00;52431.78;5028280;28;20367;-62
2024/03/21 05:00:02;;;;;;;;;;;;;;;-144.99;100.00;52419.56;5028134;28;20042;-63
2024/03/21 05:02:28;;;;;;;;;;;;;;;-144.99;100.00;52448.09;5027609;28;19961;-62
2024/03/21 05:04:54;;;;;;;;;;;;;;;-144.99;100.00;52419.56;5033187;28;19944;-63
2024/03/21 05:07:20;;;;;;;;;;;;;;;-144.99;100.00;52444.03;5026058;28;20041;-63
2024/03/21 05:09:46;;;;;;;;;;;;;;;-144.99;100.00;52419.56;5028636;28;19967;-63
2024/03/21 05:12:12;;;;;;;;;;;;;;;-144.99;100.00;52435.88;5027627;28;19995;-63
2024/03/21 05:14:39;;;;;;;;;;;;;;;-144.99;100.00;52444.03;5021883;28;20356;-62
2024/03/21 05:17:05;;;;;;;;;;;;;;;-144.99;100.00;52407.31;5031243;28;20024;-65
2024/03/21 05:19:31;;;;;;;;;;;;;;;-144.99;100.00;52403.25;5030761;28;19967;-64
2024/03/21 05:21:57;;;;;;;;;;;;;;;-144.99;100.00;52403.25;5029795;28;19999;-60
2024/03/21 05:24:23;;;;;;;;;;;;;;;-144.99;100.00;52427.72;5028413;28;20411;-64
2024/03/21 05:26:49;;;;;;;;;;;;;;;-144.99;100.00;52407.31;5029673;28;19978;-63
2024/03/21 05:29:15;;;;;;;;;;;;;;;-144.99;100.00;52468.47;5028667;28;20002;-63
2024/03/21 05:31:43;;;;;;;;;;;;;;;-144.99;100.00;52417.53;5027706;28;20455;-63
2024/03/21 05:34:08;;;;;;;;;;;;;;;-144.99;100.00;52429.75;5028276;28;19941;-64
2024/03/21 05:36:35;;;;;;;;;;;;;;;-144.99;100.00;52435.88;5031184;28;20441;-65
2024/03/21 05:39:01;;;;;;;;;;;;;;;-144.99;100.00;52452.16;5028644;28;19942;-68
2024/03/21 05:41:27;;;;;;;;;;;;;;;-144.99;100.00;52476.63;5027603;28;20432;-65
2024/03/21 05:43:53;;;;;;;;;;;;;;;-144.99;100.00;52454.22;5027645;28;19999;-65
2024/03/21 05:46:20;;;;;;;;;;;;;;;-144.99;100.00;52448.09;5026749;28;20021;-65
2024/03/21 05:48:46;;;;;;;;;;;;;;;-144.99;100.00;52444.03;5028614;28;20325;-65
2024/03/21 05:51:13;;;;;;;;;;;;;;;-144.99;100.00;52474.59;5031447;28;20357;-65
2024/03/21 05:53:38;;;;;;;;;;;;;;;-144.99;100.00;52444.03;5028136;28;19940;-65
2024/03/21 05:56:06;;;;;;;;;;;;;;;-144.99;100.00;52472.56;5030051;28;19929;-65
2024/03/21 05:58:31;;;;;;;;;;;;;;;-144.99;100.00;52501.09;5030297;28;19965;-65
2024/03/21 06:01:03;;;;;;;;;;;;;;;-144.99;100.00;52427.72;5031117;28;19929;-64
2024/03/21 06:03:28;;;;;;;;;;;;;;;-144.99;100.00;52444.03;5032325;28;20038;-64
2024/03/21 06:05:56;;;;;;;;;;;;;;;-144.99;100.00;52460.31;5032697;28;20022;-65
2024/03/21 06:08:22;;;;;;;;;;;;;;;-144.99;100.00;52488.84;5031262;28;19951;-65
2024/03/21 06:10:48;;;;;;;;;;;;;;;-144.99;100.00;52427.72;5032686;28;19971;-63
2024/03/21 06:13:14;;;;;;;;;;;;;;;-144.99;100.00;52472.56;5036384;28;20038;-63
2024/03/21 06:15:41;;;;;;;;;;;;;;;-144.99;100.00;52533.69;5033018;28;20066;-63
2024/03/21 06:18:07;;;;;;;;;;;;;;;-144.99;100.00;52472.56;5030301;28;19979;-63
2024/03/21 06:20:33;;;;;;;;;;;;;;;-144.99;100.00;52444.03;5030655;28;19989;-63
2024/03/21 06:23:00;;;;;;;;;;;;;;;-144.99;100.00;52456.25;5030794;28;19960;-63
2024/03/21 06:25:27;;;;;;;;;;;;;;;-144.99;100.00;52509.25;5030681;28;20100;-63
2024/03/21 06:27:53;;;;;;;;;;;;;;;-144.99;100.00;52472.56;5030203;28;19944;-63
2024/03/21 06:30:20;;;;;;;;;;;;;;;-144.99;100.00;52456.25;5030073;28;20304;-63
2024/03/21 06:32:47;;;;;;;;;;;;;;;-144.99;100.00;52444.03;5030251;28;19980;-63
2024/03/21 06:35:14;;;;;;;;;;;;;;;-144.99;100.00;52480.72;5027432;28;19970;-62
2024/03/21 06:37:40;;;;;;;;;;;;;;;-144.99;100.00;52480.72;5030090;28;19964;-63
2024/03/21 06:40:09;;;;;;;;;;;;;;;-144.99;100.00;52466.44;5030511;28;20076;-63
2024/03/21 06:42:34;;;;;;;;;;;;;;;-144.99;100.00;52470.50;5030044;28;19975;-63
2024/03/21 06:45:05;;;;;;;;;;;;;;;-144.99;100.00;52460.31;5030808;28;20325;-63
2024/03/21 06:47:30;;;;;;;;;;;;;;;-144.99;100.00;52429.75;5030017;28;20065;-63
2024/03/21 06:49:57;;;;;;;;;;;;;;;-144.99;100.00;52472.56;5029893;28;20066;-62
2024/03/21 06:52:23;;;;;;;;;;;;;;;-144.99;100.00;52466.44;5030219;28;20007;-63
2024/03/21 06:54:49;;;;;;;;;;;;;;;-144.99;100.00;52437.91;5029523;28;20002;-63
2024/03/21 06:57:16;;;;;;;;;;;;;;;-144.99;100.00;52509.25;5030866;28;20137;-63
2024/03/21 06:59:43;;;;;;;;;;;;;;;-144.99;100.00;52441.97;5030606;28;19955;-63
2024/03/21 07:02:08;;;;;;;;;;;;;;;-144.99;100.00;52484.78;5029845;28;20402;-63
2024/03/21 07:04:35;;;;;;;;;;;;;;;-144.99;100.00;52480.72;5030446;28;19991;-64
2024/03/21 07:07:00;;;;;;;;;;;;;;;-144.99;100.00;52472.56;5031422;28;19964;-64
2024/03/21 07:09:27;;;;;;;;;;;;;;;-144.99;100.00;52484.78;5032746;28;20508;-65
2024/03/21 07:11:52;;;;;;;;;;;;;;;-144.99;100.00;52462.34;5029712;28;20053;-64
2024/03/21 07:14:20;;;;;;;;;;;;;;;-144.99;100.00;52460.31;5029576;28;20356;-63
2024/03/21 07:16:47;;;;;;;;;;;;;;;-144.99;100.00;52468.47;5029233;28;20029;-63
2024/03/21 07:19:12;;;;;;;;;;;;;;;-144.99;100.00;52480.72;5029464;28;20306;-64
2024/03/21 07:21:39;;;;;;;;;;;;;;;-144.99;100.00;52472.56;5029539;28;19987;-64
2024/03/21 07:24:04;;;;;;;;;;;;;;;-144.99;100.00;52454.22;5029562;28;19932;-63
2024/03/21 07:26:31;;;;;;;;;;;;;;;-144.99;100.00;52476.63;5028914;28;19929;-63
2024/03/21 07:28:56;;;;;;;;;;;;;;;-144.99;100.00;52427.72;5029060;28;20441;-63
2024/03/21 07:31:24;;;;;;;;;;;;;;;-144.99;100.00;52464.41;5028787;28;19929;-63
2024/03/21 07:33:51;;;;;;;;;;;;;;;-144.99;100.00;52478.66;5029349;28;19978;-63
2024/03/21 07:36:18;;;;;;;;;;;;;;;-144.99;100.00;52460.31;5029473;28;19940;-64
2024/03/21 07:38:43;;;;;;;;;;;;;;;-144.99;100.00;52452.16;5029401;28;19970;-63
2024/03/21 07:41:10;;;;;;;;;;;;;;;-144.99;100.00;52490.91;5029019;28;20060;-63
2024/03/21 07:43:35;;;;;;;;;;;;;;;-144.99;100.00;52484.78;5029019;28;20363;-63
2024/03/21 07:46:02;;;;;;;;;;;;;;;-144.99;100.00;52460.31;5029118;28;19976;-64
2024/03/21 07:48:28;;;;;;;;;;;;;;;-144.99;100.00;52454.22;5028465;28;19929;-63
2024/03/21 07:50:56;;;;;;;;;;;;;;;-144.99;100.00;52444.03;5028836;28;20008;-63
2024/03/21 07:53:21;;;;;;;;;;;;;;;-144.99;100.00;52472.56;5029047;28;20003;-65
2024/03/21 07:55:48;;;;;;;;;;;;;;;-144.99;100.00;52480.72;5028909;28;19943;-66
2024/03/21 07:58:13;;;;;;;;;;;;;;;-144.99;100.00;52472.56;5028411;28;19967;-64
2024/03/21 08:00:40;;;;;;;;;;;;;;;-144.99;100.00;52435.88;5029234;28;19955;-66
2024/03/21 08:03:05;;;;;;;;;;;;;;;-144.99;100.00;52472.56;5031243;28;19979;-65
2024/03/21 08:05:33;;;;;;;;;;;;;;;-144.99;100.00;52480.72;5030657;28;19972;-65
2024/03/21 08:07:59;;;;;;;;;;;;;;;-144.99;100.00;52480.72;5029545;28;19960;-65
2024/03/21 08:10:25;;;;;;;;;;;;;;;-144.99;100.00;52470.50;5028490;28;20223;-64
2024/03/21 08:12:51;;;;;;;;;;;;;;;-144.99;100.00;52395.09;5028730;28;19936;-65
2024/03/21 08:15:17;;;;;;;;;;;;;;;-144.99;100.00;52439.94;5028929;28;20051;-64
2024/03/21 08:17:43;;;;;;;;;;;;;;;-144.99;100.00;52480.72;5028489;28;20604;-65
2024/03/21 08:20:09;;;;;;;;;;;;;;;-144.99;100.00;52488.84;5029585;28;19961;-65
2024/03/21 08:22:36;;;;;;;;;;;;;;;-144.99;100.00;52458.28;5029033;28;19933;-65
2024/03/21 08:25:03;;;;;;;;;;;;;;;-144.99;100.00;52476.63;5028404;28;20368;-64
2024/03/21 08:27:29;;;;;;;;;;;;;;;-144.99;100.00;52468.47;5028455;28;20069;-64
2024/03/21 08:29:56;;;;;;;;;;;;;;;-144.99;100.00;52435.88;5028188;28;19963;-66
2024/03/21 08:32:22;;;;;;;;;;;;;;;-144.99;100.00;52464.41;5028070;28;20028;-66
2024/03/21 08:34:48;;;;;;;;;;;;;;;-144.99;100.00;52448.09;5028677;28;20054;-66
2024/03/21 08:37:14;;;;;;;;;;;;;;;-144.99;100.00;52407.31;5028500;28;20016;-65
2024/03/21 08:39:42;;;;;;;;;;;;;;;-144.99;100.00;52456.25;5028243;28;19937;-65
2024/03/21 08:42:08;;;;;;;;;;;;;;;-144.99;100.00;52452.16;5028331;28;20091;-65
2024/03/21 08:44:34;;;;;;;;;;;;;;;-144.99;100.00;52427.72;5028279;28;20464;-65
2024/03/21 08:47:00;;;;;;;;;;;;;;;-144.99;100.00;52439.94;5028053;28;20061;-64
2024/03/21 08:49:26;;;;;;;;;;;;;;;-144.99;100.00;52439.94;5028345;28;19929;-64
2024/03/21 08:51:52;;;;;;;;;;;;;;;-144.99;100.00;52423.63;5028240;28;20182;-64
2024/03/21 08:54:20;;;;;;;;;;;;;;;-144.99;100.00;52413.44;5027922;28;20731;-64
2024/03/21 08:56:47;;;;;;;;;;;;;;;-144.99;100.00;52397.13;5036744;28;20211;-66
2024/03/21 08:59:13;;;;;;;;;;;;;;;-144.99;100.00;52460.31;5037386;28;19925;-66
2024/03/21 09:01:39;;;;;;;;;;;;;;;-144.99;100.00;52413.44;5034816;28;20420;-66
2024/03/21 09:04:06;;;;;;;;;;;;;;;-144.99;100.00;52439.94;5035323;28;19991;-67
2024/03/21 09:06:34;;;;;;;;;;;;;;;-144.99;100.00;52444.03;5034925;28;19944;-66
2024/03/21 09:09:05;;;;;;;;;;;;;;;-144.99;100.00;52407.31;5032039;28;20003;-68
2024/03/21 09:11:31;;;;;;;;;;;;;;;-144.99;100.00;52452.16;5032681;28;19925;-65
2024/03/21 09:13:59;;;;;;;;;;;;;;;-144.99;100.00;52435.88;5033366;28;19933;-65
2024/03/21 09:16:24;;;;;;;;;;;;;;;-144.99;100.00;52448.09;5033974;28;19970;-65
2024/03/21 09:18:51;;;;;;;;;;;;;;;-144.99;100.00;52391.03;5033014;28;20449;-67
2024/03/21 09:21:16;;;;;;;;;;;;;;;-144.99;100.00;52427.72;5032484;28;19956;-65
2024/03/21 09:23:43;;;;;;;;;;;;;;;-144.99;100.00;52431.78;5029416;28;19943;-66
2024/03/21 09:26:08;;;;;;;;;;;;;;;-144.99;100.00;52415.47;5030482;28;19930;-66
2024/03/21 09:28:35;;;;;;;;;;;;;;;-144.99;100.00;52431.78;5030276;28;19979;-66
2024/03/21 09:31:02;;;;;;;;;;;;;;;-144.99;100.00;52419.56;5033452;28;19979;-66
2024/03/21 09:33:28;;;;;;;;;;;;;;;-144.99;100.00;52456.25;5032347;28;19983;-65
2024/03/21 09:35:57;;;;;;;;;;;;;;;-144.99;100.00;52427.72;5032440;28;19925;-64
2024/03/21 09:38:23;;;;;;;;;;;;;;;-144.99;100.00;52431.78;5032319;28;20065;-64
2024/03/21 09:40:49;;;;;;;;;;;;;;;-144.99;100.00;52444.03;5032138;28;19980;-64
2024/03/21 09:43:16;;;;;;;;;;;;;;;-144.99;100.00;52456.25;5030854;28;19993;-64
2024/03/21 09:45:43;;;;;;;;;;;;;;;-144.99;100.00;52415.47;5031699;28;20026;-63
2024/03/21 09:48:11;;;;;;;;;;;;;;;-144.99;100.00;52435.88;5031080;28;20034;-64
2024/03/21 09:50:40;;;;;;;;;;;;;;;-144.99;100.00;52407.31;5031353;28;19951;-64
2024/03/21 09:53:09;;;;;;;;;;;;;;;-144.99;100.00;52429.75;5031554;28;20003;-64
2024/03/21 09:55:37;;;;;;;;;;;;;;;-144.99;100.00;52435.88;5031328;28;20206;-64
2024/03/21 09:58:05;;;;;;;;;;;;;;;-144.99;100.00;52452.16;5030057;28;20057;-64
2024/03/21 10:00:31;;;;;;;;;;;;;;;-144.99;100.00;52492.94;5031115;28;19991;-64
2024/03/21 10:02:57;;;;;;;;;;;;;;;-144.99;100.00;52466.44;5031489;28;20368;-64
2024/03/21 10:05:24;;;;;;;;;;;;;;;-144.99;100.00;52456.25;5032108;28;19925;-64
2024/03/21 10:07:51;;;;;;;;;;;;;;;-144.99;100.00;52431.78;5031194;28;19947;-64
2024/03/21 10:10:16;;;;;;;;;;;;;;;-144.99;100.00;52460.31;5030890;28;20054;-64
2024/03/21 10:12:43;;;;;;;;;;;;;;;-144.99;100.00;52425.66;5029598;28;20079;-64
2024/03/21 10:15:10;;;;;;;;;;;;;;;-144.99;100.00;52458.28;5030818;28;20192;-63
2024/03/21 10:17:37;;;;;;;;;;;;;;;-144.99;100.00;52415.47;5030503;28;20306;-64
2024/03/21 10:20:03;;;;;;;;;;;;;;;-144.99;100.00;52525.56;5030793;28;19933;-64
2024/03/21 10:22:30;;;;;;;;;;;;;;;-144.99;100.00;52464.41;5031036;28;20472;-64
2024/03/21 10:24:57;;;;;;;;;;;;;;;-144.99;100.00;52476.63;5030705;28;19965;-64
2024/03/21 10:27:23;;;;;;;;;;;;;;;-144.99;100.00;52492.94;5030093;28;19929;-64
2024/03/21 10:29:49;;;;;;;;;;;;;;;-144.99;100.00;52468.47;5029414;28;19994;-63
2024/03/21 10:32:17;;;;;;;;;;;;;;;-144.99;100.00;52454.22;5030441;28;20363;-65
2024/03/21 10:34:45;;;;;;;;;;;;;;;-144.99;100.00;52441.97;5030955;28;20309;-64
2024/03/21 10:37:12;;;;;;;;;;;;;;;-144.99;100.00;52460.31;5031289;28;19936;-65
2024/03/21 10:39:38;;;;;;;;;;;;;;;-144.99;100.00;52456.25;5031050;28;20360;-65
2024/03/21 10:42:07;;;;;;;;;;;;;;;-144.99;100.00;52435.88;5029496;28;20001;-65
2024/03/21 10:44:33;;;;;;;;;;;;;;;-144.99;100.00;52456.25;5030858;28;19964;-64
2024/03/21 10:47:00;;;;;;;;;;;;;;;-144.99;100.00;52452.16;5030369;28;20265;-64
2024/03/21 10:49:26;;;;;;;;;;;;;;;-144.99;100.00;52444.03;5030409;28;20325;-65
2024/03/21 10:51:53;;;;;;;;;;;;;;;-144.99;100.00;52472.56;5030372;28;19990;-64
2024/03/21 10:54:19;;;;;;;;;;;;;;;-144.99;100.00;52407.31;5030561;28;20349;-64
2024/03/21 10:56:47;;;;;;;;;;;;;;;-144.99;100.00;52492.94;5030450;28;19963;-64
2024/03/21 10:59:16;;;;;;;;;;;;;;;-144.99;100.00;52431.78;5034780;28;20121;-65
2024/03/21 11:01:43;;;;;;;;;;;;;;;-144.99;100.00;52501.09;5035622;28;19980;-65
2024/03/21 11:04:09;;;;;;;;;;;;;;;-144.99;100.00;52462.34;5031040;28;20407;-65
2024/03/21 11:06:36;;;;;;;;;;;;;;;-144.99;100.00;52441.97;5030206;28;20419;-65
2024/03/21 11:09:03;;;;;;;;;;;;;;;-144.99;100.00;52439.94;5030425;28;19939;-63
2024/03/21 11:11:30;;;;;;;;;;;;;;;-144.99;100.00;52454.22;5029738;28;20054;-63
2024/03/21 11:14:00;;;;;;;;;;;;;;;-144.99;100.00;52476.63;5028482;28;19943;-63
2024/03/21 11:16:27;;;;;;;;;;;;;;;-144.99;100.00;52393.06;5029648;28;19960;-64
2024/03/21 11:18:52;;;;;;;;;;;;;;;-144.99;100.00;52472.56;5029811;28;20010;-64
2024/03/21 11:21:19;;;;;;;;;;;;;;;-144.99;100.00;52431.78;5029643;28;19965;-64
2024/03/21 11:23:45;;;;;;;;;;;;;;;-144.99;100.00;52419.56;5029968;28;19951;-64
2024/03/21 11:26:14;;;;;;;;;;;;;;;-144.99;100.00;52431.78;5029496;28;20067;-64
2024/03/21 11:28:40;;;;;;;;;;;;;;;-144.99;99.81;52480.72;5026600;28;19952;-65
2024/03/21 11:31:17;;;;;;;;;;;;;;;-144.99;99.12;52423.63;5029130;28;19959;-64
2024/03/21 11:33:42;;;;;;;;;;;;;;;-144.99;98.81;52421.59;5021883;28;20070;-64
2024/03/21 11:36:09;;;;;;;;;;;;;;;-144.99;98.39;52409.38;5029283;28;20028;-64
2024/03/21 11:38:34;;;;;;;;;;;;;;;-144.99;98.29;52488.84;5029315;28;20018;-64
2024/03/21 11:41:01;;;;;;;;;;;;;;;-144.99;97.78;52488.84;5028954;28;20397;-64
2024/03/21 11:43:27;;;;;;;;;;;;;;;-144.99;97.58;52480.72;5029253;28;20440;-65
2024/03/21 11:45:53;;;;;;;;;;;;;;;-144.99;97.71;52486.81;5029404;28;19929;-65
2024/03/21 11:48:24;;;;;;;;;;;;;;;-144.99;97.74;52466.44;5029192;28;19932;-65
2024/03/21 11:50:51;;;;;;;;;;;;;;;-144.99;96.73;52448.09;5028724;28;20434;-65
2024/03/21 11:53:16;;;;;;;;;;;;;;;-144.99;96.61;52444.03;5028777;28;19965;-65
2024/03/21 11:55:43;;;;;;;;;;;;;;;-144.99;95.73;52452.16;5029356;28;19989;-65
2024/03/21 11:58:08;;;;;;;;;;;;;;;-144.99;95.38;52415.47;5030596;28;19966;-65
2024/03/21 12:00:35;;;;;;;;;;;;;;;-144.99;94.45;52462.34;5031443;28;19951;-65
2024/03/21 12:03:00;;;;;;;;;;;;;;;-144.99;94.21;52423.63;5029217;28;19983;-65
2024/03/21 12:05:28;;;;;;;;;;;;;;;-144.99;94.34;52439.94;5029144;28;20064;-65
2024/03/21 12:07:54;;;;;;;;;;;;;;;-144.99;94.34;52439.94;5029317;28;20144;-66
2024/03/21 12:10:20;;;;;;;;;;;;;;;-144.99;94.35;52431.78;5029492;28;19933;-66
2024/03/21 12:12:46;;;;;;;;;;;;;;;-144.99;94.37;52484.78;5030070;28;20067;-65
2024/03/21 12:15:13;;;;;;;;;;;;;;;-144.99;94.25;52470.50;5039048;28;19987;-65
2024/03/21 12:17:39;;;;;;;;;;;;;;;-144.99;94.17;52456.25;5038786;28;20155;-65